Time;durP1;ratioP1;P1;durP2;ratioP2;P2;SDS_P1;SDS_P2;PMS_P1;PMS_P2;Temp;Humidity;BMP_temperature;BMP_pressure;BME280_temperature;BME280_humidity;BME280_pressure;Samples;Min_cycle;Max_cycle;Signal;HPM_P1;HPM_P2
2022/01/08 00:01:14;;;;;;;1.00;0.50;;;5.20;99.90;;;;;;5045465;28;20188;-69
2022/01/08 00:03:43;;;;;;;0.50;0.40;;;5.10;99.90;;;;;;5054799;28;20196;-69
2022/01/08 00:06:11;;;;;;;1.17;0.40;;;5.10;99.90;;;;;;5052823;28;20192;-69
2022/01/08 00:08:36;;;;;;;2.17;0.60;;;5.10;99.90;;;;;;5049085;28;20184;-68
2022/01/08 00:11:07;;;;;;;11.90;7.10;;;5.10;99.90;;;;;;5083066;28;20242;-68
2022/01/08 00:13:34;;;;;;;3.90;2.10;;;5.10;99.90;;;;;;5054976;28;20197;-67
2022/01/08 00:16:02;;;;;;;4.90;2.27;;;5.00;99.90;;;;;;5054916;28;20212;-68
2022/01/08 00:18:30;;;;;;;2.60;1.37;;;5.00;99.90;;;;;;5077659;28;20401;-68
2022/01/08 00:20:55;;;;;;;2.83;1.40;;;5.00;99.90;;;;;;5061203;28;20184;-69
2022/01/08 00:23:24;;;;;;;2.93;1.10;;;5.00;99.90;;;;;;5058492;28;20196;-69
2022/01/08 00:25:49;;;;;;;2.10;0.77;;;4.90;99.90;;;;;;5057235;28;20185;-69
2022/01/08 00:28:18;;;;;;;1.33;0.70;;;4.90;99.90;;;;;;5060789;28;20206;-69
2022/01/08 00:30:45;;;;;;;1.60;0.60;;;4.90;99.90;;;;;;5058480;28;20480;-68
2022/01/08 00:33:12;;;;;;;1.20;0.67;;;4.90;99.90;;;;;;5060882;28;20177;-68
2022/01/08 00:35:40;;;;;;;1.80;0.70;;;4.80;99.90;;;;;;5058635;28;20180;-69
2022/01/08 00:38:08;;;;;;;1.40;0.50;;;4.80;99.90;;;;;;5058929;28;20227;-68
2022/01/08 00:40:36;;;;;;;1.40;0.70;;;4.80;99.90;;;;;;5059028;28;20235;-67
2022/01/08 00:43:04;;;;;;;1.20;0.70;;;4.80;99.90;;;;;;5095851;28;20169;-69
2022/01/08 00:45:30;;;;;;;1.10;0.60;;;4.80;99.90;;;;;;5057750;28;20244;-66
2022/01/08 00:47:57;;;;;;;1.17;0.40;;;4.70;99.90;;;;;;5057708;28;20211;-68
2022/01/08 00:50:23;;;;;;;1.03;0.50;;;4.70;99.90;;;;;;5077926;28;20192;-68
2022/01/08 00:52:49;;;;;;;1.43;0.73;;;4.70;99.90;;;;;;5052232;28;20208;-68
2022/01/08 00:55:17;;;;;;;1.27;0.67;;;4.70;99.90;;;;;;5060337;28;20188;-68
2022/01/08 00:57:47;;;;;;;1.17;0.60;;;4.70;99.90;;;;;;5050013;28;20208;-68
2022/01/08 01:00:16;;;;;;;1.63;0.80;;;4.60;99.90;;;;;;5053350;28;20181;-68
2022/01/08 01:02:44;;;;;;;1.10;0.60;;;4.60;99.90;;;;;;5058163;28;20414;-69
2022/01/08 01:05:10;;;;;;;1.30;0.70;;;4.60;99.90;;;;;;5088473;28;20215;-67
2022/01/08 01:07:38;;;;;;;1.83;0.90;;;4.60;99.90;;;;;;5061598;28;20282;-67
2022/01/08 01:10:06;;;;;;;1.53;0.60;;;4.60;99.90;;;;;;5063631;28;20180;-68
2022/01/08 01:12:34;;;;;;;2.27;0.80;;;4.60;99.90;;;;;;5056536;28;20177;-69
2022/01/08 01:15:03;;;;;;;1.23;0.73;;;4.60;99.90;;;;;;5054543;28;20366;-69
2022/01/08 01:17:31;;;;;;;1.23;0.70;;;4.60;99.90;;;;;;5066067;28;20317;-68
2022/01/08 01:19:57;;;;;;;0.67;0.53;;;4.60;99.90;;;;;;5056760;28;20444;-68
2022/01/08 01:22:28;;;;;;;1.97;0.70;;;4.60;99.90;;;;;;5059645;28;20177;-67
2022/01/08 01:25:04;;;;;;;0.90;0.50;;;4.50;99.90;;;;;;5057491;28;20223;-68
2022/01/08 01:30:17;;;;;;;2.20;0.50;;;4.50;99.90;;;;;;5071597;28;20169;-69
2022/01/08 01:41:23;;;;;;;1.33;0.50;;;4.50;99.90;;;;;;5073204;28;20277;-69
2022/01/08 01:49:18;;;;;;;1.30;0.67;;;4.50;99.90;;;;;;5074718;28;20345;-70
2022/01/08 01:51:43;;;;;;;1.03;0.60;;;4.50;99.90;;;;;;5062671;28;20199;-67
2022/01/08 01:54:09;;;;;;;1.27;0.60;;;4.60;99.90;;;;;;5057607;28;20267;-69
2022/01/08 01:56:38;;;;;;;0.83;0.60;;;4.50;99.90;;;;;;5053894;28;20219;-68
2022/01/08 01:59:06;;;;;;;0.70;0.30;;;4.50;99.90;;;;;;5070730;28;20261;-68
2022/01/08 02:01:34;;;;;;;1.83;0.80;;;4.60;99.90;;;;;;5055266;28;20228;-69
2022/01/08 02:04:00;;;;;;;0.70;0.47;;;4.50;99.90;;;;;;5068961;28;20184;-69
2022/01/08 02:06:25;;;;;;;1.30;0.70;;;4.50;99.90;;;;;;5088586;28;20188;-69
2022/01/08 02:08:53;;;;;;;1.63;0.70;;;4.50;99.90;;;;;;5056312;28;20215;-68
2022/01/08 02:11:20;;;;;;;0.70;0.63;;;4.50;99.90;;;;;;5054801;28;20326;-69
2022/01/08 02:13:49;;;;;;;1.40;0.60;;;4.50;99.90;;;;;;5058128;28;20188;-68
2022/01/08 02:16:17;;;;;;;1.93;1.00;;;4.50;99.90;;;;;;5061529;28;20208;-69
2022/01/08 02:18:50;;;;;;;1.23;0.70;;;4.50;99.90;;;;;;5064680;28;20271;-69
2022/01/08 02:21:19;;;;;;;1.50;0.67;;;4.60;99.90;;;;;;5059209;28;20234;-68
2022/01/08 02:23:46;;;;;;;2.40;0.60;;;4.60;99.90;;;;;;5058517;28;20177;-69
2022/01/08 02:26:16;;;;;;;1.80;0.73;;;4.60;99.90;;;;;;5060589;28;20226;-69
2022/01/08 02:28:44;;;;;;;1.10;0.63;;;4.50;99.90;;;;;;5056021;28;20200;-69
2022/01/08 02:31:23;;;;;;;2.10;0.70;;;4.50;99.90;;;;;;5053424;28;20235;-69
2022/01/08 02:33:52;;;;;;;1.47;0.57;;;4.50;99.90;;;;;;5050187;28;20297;-69
2022/01/08 02:36:18;;;;;;;1.23;0.60;;;4.50;99.90;;;;;;5052639;28;20344;-68
2022/01/08 02:38:44;;;;;;;0.90;0.60;;;4.50;99.90;;;;;;5073480;28;20210;-69
2022/01/08 02:41:10;;;;;;;0.77;0.50;;;4.50;99.90;;;;;;5057873;28;20208;-69
2022/01/08 02:43:41;;;;;;;0.80;0.60;;;4.40;99.90;;;;;;5055179;28;20215;-69
2022/01/08 02:46:09;;;;;;;1.07;0.50;;;4.40;99.90;;;;;;5057024;28;20176;-69
2022/01/08 02:48:36;;;;;;;1.73;0.70;;;4.30;99.90;;;;;;5060330;28;20184;-69
2022/01/08 02:51:02;;;;;;;1.50;0.90;;;4.30;99.90;;;;;;5089377;28;20223;-68
2022/01/08 02:53:30;;;;;;;2.47;0.70;;;4.30;99.90;;;;;;5055351;28;20177;-69
2022/01/08 02:55:58;;;;;;;1.07;0.60;;;4.30;99.90;;;;;;5047641;28;20181;-69
2022/01/08 02:58:26;;;;;;;1.30;0.60;;;4.20;99.90;;;;;;5056655;28;20212;-68
2022/01/08 03:00:52;;;;;;;1.57;0.60;;;4.30;99.90;;;;;;5055163;28;20168;-68
2022/01/08 03:03:17;;;;;;;0.93;0.60;;;4.30;99.90;;;;;;5053378;28;20336;-66
2022/01/08 03:05:43;;;;;;;2.13;0.63;;;4.30;99.90;;;;;;5060615;28;20522;-69
2022/01/08 03:08:09;;;;;;;1.13;0.60;;;4.30;99.90;;;;;;5057341;28;20187;-69
2022/01/08 03:10:36;;;;;;;2.30;0.70;;;4.40;99.90;;;;;;5054951;28;20185;-69
2022/01/08 03:13:05;;;;;;;1.70;0.80;;;4.40;99.90;;;;;;5056470;28;20452;-69
2022/01/08 03:15:35;;;;;;;2.10;0.70;;;4.40;99.90;;;;;;5058127;28;20196;-69
2022/01/08 03:18:07;;;;;;;1.93;0.83;;;4.40;99.90;;;;;;5053702;28;20290;-68
2022/01/08 03:20:43;;;;;;;2.17;0.90;;;4.50;99.90;;;;;;5058017;28;20169;-69
2022/01/08 03:23:14;;;;;;;1.87;1.10;;;4.50;99.90;;;;;;5055543;28;20207;-69
2022/01/08 03:25:39;;;;;;;1.90;1.13;;;4.50;99.90;;;;;;5082135;28;20196;-67
2022/01/08 03:28:11;;;;;;;4.13;1.40;;;4.50;99.90;;;;;;5061864;28;20180;-68
2022/01/08 03:30:36;;;;;;;3.63;1.10;;;4.50;99.90;;;;;;5048641;28;20186;-69
2022/01/08 03:33:04;;;;;;;1.07;0.77;;;4.50;99.90;;;;;;5060005;28;20299;-69
2022/01/08 03:35:30;;;;;;;1.50;1.03;;;4.60;99.90;;;;;;5056139;28;20181;-69
2022/01/08 03:37:56;;;;;;;2.33;1.40;;;4.50;99.90;;;;;;5051760;28;20215;-68
2022/01/08 03:40:21;;;;;;;3.53;1.40;;;4.50;99.90;;;;;;5055625;28;20210;-69
2022/01/08 03:42:47;;;;;;;2.70;1.50;;;4.50;99.90;;;;;;5056436;28;20216;-73
2022/01/08 03:45:15;;;;;;;2.13;1.50;;;4.50;99.90;;;;;;5055889;28;20242;-73
2022/01/08 03:50:15;;;;;;;2.93;1.70;;;4.40;99.90;;;;;;5070797;28;20176;-72
2022/01/08 03:52:40;;;;;;;2.97;1.40;;;4.40;99.90;;;;;;5052877;28;20260;-72
2022/01/08 03:55:09;;;;;;;3.10;1.53;;;4.40;99.90;;;;;;5054835;28;20212;-70
2022/01/08 03:57:34;;;;;;;2.37;1.70;;;4.40;99.90;;;;;;5067983;28;20253;-71
2022/01/08 04:00:00;;;;;;;3.03;2.13;;;4.40;99.90;;;;;;5092385;28;20204;-70
2022/01/08 04:02:25;;;;;;;4.83;2.50;;;4.40;99.90;;;;;;5062046;28;20180;-72
2022/01/08 04:04:51;;;;;;;2.73;2.33;;;4.30;99.90;;;;;;5059609;28;20184;-72
2022/01/08 04:07:19;;;;;;;4.27;2.60;;;4.40;99.90;;;;;;5057594;28;20212;-72
2022/01/08 04:09:45;;;;;;;7.10;2.70;;;4.30;99.90;;;;;;5057265;28;20257;-69
2022/01/08 04:12:15;;;;;;;4.27;2.80;;;4.30;99.90;;;;;;5060008;28;20184;-70
2022/01/08 04:15:07;;;;;;;4.50;3.00;;;4.30;99.90;;;;;;5056606;28;20188;-73
2022/01/08 04:17:27;;;;;;;3.30;2.90;;;4.20;99.90;;;;;;5075068;28;20261;-70
2022/01/08 04:19:52;;;;;;;5.77;3.50;;;4.20;99.90;;;;;;5056957;28;20189;-67
2022/01/08 04:22:21;;;;;;;5.03;3.93;;;4.20;99.90;;;;;;5090771;28;20176;-70
2022/01/08 04:24:49;;;;;;;7.63;4.00;;;4.20;99.90;;;;;;5058604;28;20200;-72
2022/01/08 04:27:17;;;;;;;6.27;4.00;;;4.10;99.90;;;;;;5064362;28;20323;-68
2022/01/08 04:29:42;;;;;;;5.10;4.00;;;4.10;99.90;;;;;;5059354;28;20180;-72
2022/01/08 04:32:08;;;;;;;4.60;3.53;;;4.10;99.90;;;;;;5060035;28;20182;-70
2022/01/08 04:34:34;;;;;;;5.37;4.27;;;4.10;99.90;;;;;;5058843;28;20279;-69
2022/01/08 04:37:02;;;;;;;5.03;3.70;;;4.00;99.90;;;;;;5101614;28;20271;-73
2022/01/08 04:39:28;;;;;;;4.80;3.67;;;4.00;99.90;;;;;;5060262;28;20208;-72
2022/01/08 04:41:54;;;;;;;5.97;3.80;;;4.00;99.90;;;;;;5061124;28;20258;-70
2022/01/08 04:44:20;;;;;;;6.43;4.80;;;3.90;99.90;;;;;;5052529;28;20165;-69
2022/01/08 04:46:45;;;;;;;6.47;4.60;;;3.90;99.90;;;;;;5057965;28;20331;-73
2022/01/08 04:49:13;;;;;;;6.97;5.20;;;3.90;99.90;;;;;;5059674;28;20205;-72
2022/01/08 04:51:39;;;;;;;7.00;4.97;;;3.90;99.90;;;;;;5059883;28;20349;-72
2022/01/08 04:54:09;;;;;;;4.97;4.17;;;3.80;99.90;;;;;;5054633;28;20209;-67
2022/01/08 04:56:35;;;;;;;7.73;4.70;;;3.80;99.90;;;;;;5056951;28;20204;-71
2022/01/08 04:59:00;;;;;;;7.33;4.73;;;3.80;99.90;;;;;;5057412;28;20202;-70
2022/01/08 05:01:29;;;;;;;6.70;5.10;;;3.80;99.90;;;;;;5055963;28;21379;-72
2022/01/08 05:03:54;;;;;;;8.10;5.53;;;3.80;99.90;;;;;;5089508;28;20217;-72
2022/01/08 05:06:22;;;;;;;9.33;5.87;;;3.70;99.90;;;;;;5056063;28;20184;-71
2022/01/08 05:08:48;;;;;;;7.60;5.63;;;3.70;99.90;;;;;;5057545;28;20191;-69
2022/01/08 05:11:15;;;;;;;6.87;5.43;;;3.80;99.90;;;;;;5060786;28;20290;-72
2022/01/08 05:13:43;;;;;;;9.37;6.00;;;3.80;99.90;;;;;;5057380;28;20246;-69
2022/01/08 05:16:12;;;;;;;8.50;6.17;;;3.80;99.90;;;;;;5056385;28;20275;-73
2022/01/08 05:18:37;;;;;;;10.77;6.13;;;3.70;99.90;;;;;;5057046;28;20488;-71
2022/01/08 05:21:23;;;;;;;9.83;5.50;;;3.70;99.90;;;;;;5059415;28;20264;-72
2022/01/08 05:23:50;;;;;;;8.57;5.57;;;3.80;99.90;;;;;;5058114;28;20279;-72
2022/01/08 05:26:19;;;;;;;8.20;5.40;;;3.70;99.90;;;;;;5056967;28;20192;-72
2022/01/08 05:28:47;;;;;;;8.53;5.63;;;3.70;99.90;;;;;;5090342;28;20246;-70
2022/01/08 05:31:21;;;;;;;10.40;6.13;;;3.70;99.90;;;;;;5060821;28;20176;-73
2022/01/08 05:33:47;;;;;;;8.00;6.27;;;3.70;99.90;;;;;;5062275;28;20200;-72
2022/01/08 05:36:13;;;;;;;8.77;6.20;;;3.60;99.90;;;;;;5052561;28;20195;-71
2022/01/08 05:38:41;;;;;;;7.87;5.77;;;3.60;99.90;;;;;;5054640;28;20177;-72
2022/01/08 05:41:09;;;;;;;7.70;5.90;;;3.60;99.90;;;;;;5057733;28;20180;-69
2022/01/08 05:43:38;;;;;;;8.77;5.70;;;3.60;99.90;;;;;;5060628;28;20202;-73
2022/01/08 05:46:06;;;;;;;7.30;5.63;;;3.60;99.90;;;;;;5057651;28;20242;-73
2022/01/08 05:48:33;;;;;;;8.50;5.87;;;3.50;99.90;;;;;;5088960;28;20188;-73
2022/01/08 05:51:01;;;;;;;10.50;6.70;;;3.50;99.90;;;;;;5089932;28;20187;-73
2022/01/08 05:53:30;;;;;;;10.17;7.10;;;3.50;99.90;;;;;;5059505;28;20210;-69
2022/01/08 05:55:58;;;;;;;9.23;6.73;;;3.50;99.90;;;;;;5051986;28;20319;-71
2022/01/08 05:58:23;;;;;;;8.87;6.50;;;3.50;99.90;;;;;;5055345;28;20223;-72
2022/01/08 06:00:49;;;;;;;10.17;6.77;;;3.40;99.90;;;;;;5056078;28;20196;-68
2022/01/08 06:03:19;;;;;;;7.77;6.57;;;3.40;99.90;;;;;;5057210;28;20173;-72
2022/01/08 06:05:45;;;;;;;8.53;6.57;;;3.40;99.90;;;;;;5057495;28;20184;-72
2022/01/08 06:08:10;;;;;;;8.90;6.30;;;3.40;99.90;;;;;;5057531;28;20530;-70
2022/01/08 06:10:39;;;;;;;8.83;6.60;;;3.30;99.90;;;;;;5054527;28;20207;-73
2022/01/08 06:13:04;;;;;;;9.40;7.33;;;3.30;99.90;;;;;;5060087;28;20185;-73
2022/01/08 06:15:30;;;;;;;10.33;6.97;;;3.30;99.90;;;;;;5056415;28;20268;-73
2022/01/08 06:17:58;;;;;;;8.83;6.90;;;3.30;99.90;;;;;;5058058;28;20204;-71
2022/01/08 06:20:23;;;;;;;13.63;7.33;;;3.20;99.90;;;;;;5092023;28;20207;-67
2022/01/08 06:22:54;;;;;;;9.90;6.97;;;3.20;99.90;;;;;;5052810;28;20207;-71
2022/01/08 06:25:21;;;;;;;10.13;6.80;;;3.20;99.90;;;;;;5051210;28;20168;-72
2022/01/08 06:27:49;;;;;;;9.00;6.70;;;3.20;99.90;;;;;;5055983;28;20224;-72
2022/01/08 06:30:15;;;;;;;11.17;7.40;;;3.20;99.90;;;;;;5054096;28;20200;-71
2022/01/08 06:32:43;;;;;;;8.03;6.30;;;3.20;99.90;;;;;;5061084;28;20211;-74
2022/01/08 06:35:11;;;;;;;9.93;6.67;;;3.20;99.90;;;;;;5055999;28;20201;-72
2022/01/08 06:37:37;;;;;;;10.77;7.00;;;3.20;99.90;;;;;;5056356;28;20260;-71
2022/01/08 06:40:03;;;;;;;11.10;6.93;;;3.10;99.90;;;;;;5056237;28;20204;-71
2022/01/08 06:42:30;;;;;;;10.33;7.67;;;3.10;99.90;;;;;;5055144;28;20249;-73
2022/01/08 06:44:58;;;;;;;13.43;8.03;;;3.10;99.90;;;;;;5058282;28;20188;-72
2022/01/08 06:47:24;;;;;;;11.70;7.47;;;3.10;99.90;;;;;;5056418;28;20181;-72
2022/01/08 06:49:51;;;;;;;12.80;8.27;;;3.10;99.90;;;;;;5055865;28;20211;-72
2022/01/08 06:52:17;;;;;;;10.37;7.80;;;3.10;99.90;;;;;;5056485;28;20448;-72
2022/01/08 06:54:43;;;;;;;10.67;7.60;;;3.10;99.90;;;;;;5089356;28;20176;-70
2022/01/08 06:57:08;;;;;;;15.07;7.70;;;3.10;99.90;;;;;;5044645;28;20219;-71
2022/01/08 06:59:34;;;;;;;10.23;7.20;;;3.10;99.90;;;;;;5054924;28;20319;-74
2022/01/08 07:02:02;;;;;;;12.07;8.13;;;3.10;99.90;;;;;;5072047;28;20179;-70
2022/01/08 07:04:30;;;;;;;10.33;6.83;;;3.10;99.90;;;;;;5062461;28;20177;-70
2022/01/08 07:06:58;;;;;;;10.00;7.50;;;3.10;99.90;;;;;;5060737;28;20181;-72
2022/01/08 07:09:24;;;;;;;10.23;7.23;;;3.10;99.90;;;;;;5063138;28;20215;-72
2022/01/08 07:11:56;;;;;;;10.53;6.87;;;3.10;99.90;;;;;;5094414;28;20264;-72
2022/01/08 07:14:24;;;;;;;8.93;6.60;;;3.10;99.90;;;;;;5052593;28;20192;-70
2022/01/08 07:16:54;;;;;;;7.77;6.23;;;3.10;99.90;;;;;;5056733;28;20210;-71
2022/01/08 07:19:20;;;;;;;10.43;6.80;;;3.10;99.90;;;;;;5051308;28;20276;-73
2022/01/08 07:21:48;;;;;;;8.87;6.30;;;3.10;99.90;;;;;;5059463;28;20208;-72
2022/01/08 07:24:16;;;;;;;8.73;6.30;;;3.10;99.90;;;;;;5056461;28;20203;-72
2022/01/08 07:26:42;;;;;;;8.03;6.03;;;3.10;99.90;;;;;;5059938;28;20184;-73
2022/01/08 07:29:10;;;;;;;8.27;5.77;;;3.10;99.90;;;;;;5056037;28;20263;-72
2022/01/08 07:31:35;;;;;;;7.33;5.83;;;3.10;99.90;;;;;;5055797;28;20207;-73
2022/01/08 07:34:03;;;;;;;7.80;5.47;;;3.10;99.90;;;;;;5056537;28;20184;-68
2022/01/08 07:36:31;;;;;;;7.40;5.50;;;3.10;99.90;;;;;;5053421;28;20295;-73
2022/01/08 07:38:59;;;;;;;7.37;5.03;;;3.10;99.90;;;;;;5059075;28;20168;-72
2022/01/08 07:41:24;;;;;;;7.50;5.63;;;3.10;99.90;;;;;;5056283;28;20176;-71
2022/01/08 07:43:54;;;;;;;9.73;5.40;;;3.10;99.90;;;;;;5054978;28;20238;-73
2022/01/08 07:46:22;;;;;;;8.40;4.97;;;3.10;99.90;;;;;;5054855;28;20182;-74
2022/01/08 07:48:48;;;;;;;7.90;4.90;;;3.10;99.90;;;;;;5050106;28;20258;-72
2022/01/08 07:51:16;;;;;;;7.70;5.00;;;3.10;99.90;;;;;;5052687;28;20176;-72
2022/01/08 07:53:41;;;;;;;7.40;5.23;;;3.10;99.90;;;;;;5057116;28;20189;-69
2022/01/08 07:56:09;;;;;;;6.80;4.73;;;3.10;99.90;;;;;;5055371;28;20302;-70
2022/01/08 07:58:35;;;;;;;6.30;4.93;;;3.10;99.90;;;;;;5067355;28;20173;-73
2022/01/08 08:01:01;;;;;;;7.00;4.93;;;3.20;99.90;;;;;;5056933;28;20187;-72
2022/01/08 08:03:29;;;;;;;8.50;5.00;;;3.10;99.90;;;;;;5054450;28;20192;-72
2022/01/08 08:05:57;;;;;;;7.33;4.50;;;3.10;99.90;;;;;;5056438;28;20184;-70
2022/01/08 08:08:25;;;;;;;7.20;4.80;;;3.10;99.90;;;;;;5056020;28;20180;-71
2022/01/08 08:10:51;;;;;;;7.73;5.17;;;3.20;99.90;;;;;;5058152;28;20173;-67
2022/01/08 08:13:18;;;;;;;6.87;4.87;;;3.20;99.90;;;;;;5054208;28;20186;-67
2022/01/08 08:15:47;;;;;;;7.63;4.43;;;3.20;99.90;;;;;;5054544;28;20208;-72
2022/01/08 08:18:13;;;;;;;6.67;4.43;;;3.20;99.90;;;;;;5049856;28;20200;-72
2022/01/08 08:20:40;;;;;;;7.73;4.57;;;3.30;99.90;;;;;;5055335;28;20217;-73
2022/01/08 08:23:06;;;;;;;7.17;4.70;;;3.30;99.90;;;;;;5053386;28;20188;-72
2022/01/08 08:25:34;;;;;;;6.30;4.20;;;3.30;99.90;;;;;;5054475;28;20164;-72
2022/01/08 08:28:00;;;;;;;6.83;4.30;;;3.30;99.90;;;;;;5057791;28;20365;-72
2022/01/08 08:30:26;;;;;;;6.27;4.07;;;3.40;99.90;;;;;;5060033;28;20265;-72
2022/01/08 08:32:57;;;;;;;7.63;3.80;;;3.40;99.90;;;;;;5054345;28;20207;-71
2022/01/08 08:35:22;;;;;;;6.50;4.33;;;3.40;99.90;;;;;;5052908;28;20196;-66
2022/01/08 08:37:48;;;;;;;7.60;3.97;;;3.50;99.90;;;;;;5089340;28;20223;-73
2022/01/08 08:40:18;;;;;;;6.70;3.93;;;3.50;99.90;;;;;;5055883;28;20186;-74
2022/01/08 08:42:47;;;;;;;8.63;3.47;;;3.60;99.90;;;;;;5057019;28;20181;-72
2022/01/08 08:45:13;;;;;;;4.73;3.37;;;3.70;99.90;;;;;;5057297;28;20200;-71
2022/01/08 08:47:39;;;;;;;7.47;3.27;;;3.70;99.90;;;;;;5057609;28;20221;-73
2022/01/08 08:50:06;;;;;;;3.43;2.77;;;3.80;99.90;;;;;;5059119;28;20216;-71
2022/01/08 08:52:33;;;;;;;4.27;2.83;;;3.80;99.90;;;;;;5063633;28;20195;-70
2022/01/08 08:54:59;;;;;;;5.90;3.30;;;3.90;99.90;;;;;;5058273;28;20180;-71
2022/01/08 08:57:28;;;;;;;4.20;2.77;;;4.00;99.90;;;;;;5057485;28;20296;-64
2022/01/08 08:59:55;;;;;;;4.80;2.70;;;4.10;99.90;;;;;;5059108;28;20320;-72
2022/01/08 09:02:21;;;;;;;5.43;2.70;;;4.20;99.90;;;;;;5057824;28;20176;-71
2022/01/08 09:04:47;;;;;;;3.60;2.80;;;4.30;99.90;;;;;;5059080;28;20656;-72
2022/01/08 09:07:18;;;;;;;5.27;3.20;;;4.30;99.90;;;;;;5060517;28;20176;-73
2022/01/08 09:09:46;;;;;;;6.63;2.87;;;4.40;99.90;;;;;;5057157;28;20196;-72
2022/01/08 09:12:15;;;;;;;5.17;2.80;;;4.50;99.90;;;;;;5093569;28;20216;-72
2022/01/08 09:14:43;;;;;;;5.50;2.97;;;4.70;99.90;;;;;;5094161;28;20192;-72
2022/01/08 09:17:10;;;;;;;4.40;2.80;;;4.70;99.90;;;;;;5057887;28;20210;-69
2022/01/08 09:19:38;;;;;;;4.83;2.90;;;4.80;99.90;;;;;;5056096;28;20177;-71
2022/01/08 09:22:04;;;;;;;4.83;2.97;;;4.90;99.90;;;;;;5057342;28;20201;-72
2022/01/08 09:24:31;;;;;;;5.03;3.23;;;4.90;99.90;;;;;;5064278;28;20226;-73
2022/01/08 09:26:58;;;;;;;5.70;3.90;;;5.00;99.90;;;;;;5099534;28;20256;-73
2022/01/08 09:29:24;;;;;;;5.30;3.13;;;5.00;99.90;;;;;;5053347;28;20181;-70
2022/01/08 09:31:50;;;;;;;5.30;2.70;;;5.00;99.90;;;;;;5057352;28;20213;-69
2022/01/08 09:34:16;;;;;;;3.97;2.77;;;5.00;99.90;;;;;;5057969;28;20180;-71
2022/01/08 09:36:43;;;;;;;4.20;3.10;;;5.10;99.90;;;;;;5057748;28;20204;-73
2022/01/08 09:39:09;;;;;;;4.70;2.70;;;5.20;99.90;;;;;;5058110;28;20439;-74
2022/01/08 09:41:35;;;;;;;3.03;2.40;;;5.40;99.90;;;;;;5089460;28;20582;-70
2022/01/08 09:44:01;;;;;;;5.53;2.77;;;5.50;99.90;;;;;;5049390;28;20177;-68
2022/01/08 09:46:29;;;;;;;3.40;2.40;;;5.50;99.90;;;;;;5040756;28;20200;-71
2022/01/08 09:48:55;;;;;;;4.57;2.90;;;5.60;99.90;;;;;;5055130;28;20176;-65
2022/01/08 09:51:26;;;;;;;5.23;3.00;;;5.70;99.90;;;;;;5063901;28;20233;-71
2022/01/08 09:53:54;;;;;;;5.73;2.90;;;5.80;99.90;;;;;;5051536;28;20252;-70
2022/01/08 09:56:25;;;;;;;5.43;3.20;;;5.80;99.90;;;;;;5059323;28;20176;-72
2022/01/08 09:58:53;;;;;;;4.17;2.63;;;5.90;99.90;;;;;;5059495;28;20239;-72
2022/01/08 10:01:31;;;;;;;5.27;2.97;;;5.90;99.90;;;;;;5053277;28;20256;-71
2022/01/08 10:03:58;;;;;;;4.80;3.07;;;5.90;99.90;;;;;;5058134;28;20180;-67
2022/01/08 10:06:27;;;;;;;3.53;2.57;;;5.90;99.90;;;;;;5057452;28;20248;-72
2022/01/08 10:08:54;;;;;;;3.97;2.47;;;5.90;99.90;;;;;;5053700;28;20183;-70
2022/01/08 10:11:20;;;;;;;5.03;2.40;;;5.90;99.90;;;;;;5078479;28;20220;-64
2022/01/08 10:13:59;;;;;;;4.80;2.93;;;5.80;99.90;;;;;;5074457;28;20265;-70
2022/01/08 10:19:23;;;;;;;3.87;2.33;;;5.80;99.90;;;;;;5070845;28;20337;-72
2022/01/08 10:21:52;;;;;;;4.23;2.60;;;5.80;99.90;;;;;;5054936;28;20362;-75
2022/01/08 10:24:26;;;;;;;4.50;2.30;;;5.70;99.90;;;;;;5055486;28;20173;-72
2022/01/08 10:27:01;;;;;;;3.90;2.37;;;5.70;99.90;;;;;;5055041;28;20207;-71
2022/01/08 10:29:27;;;;;;;4.17;2.10;;;5.70;99.90;;;;;;5056869;28;20180;-74
2022/01/08 10:31:56;;;;;;;5.23;2.40;;;5.70;99.90;;;;;;5060396;28;20277;-72
2022/01/08 10:34:24;;;;;;;4.70;2.33;;;5.70;99.90;;;;;;5056893;28;20169;-73
2022/01/08 10:36:58;;;;;;;5.30;2.87;;;5.70;99.90;;;;;;5058279;28;20236;-73
2022/01/08 10:39:32;;;;;;;4.53;2.83;;;5.70;99.90;;;;;;5057329;28;20199;-71
2022/01/08 10:42:05;;;;;;;3.73;2.10;;;5.70;99.90;;;;;;5052704;28;20191;-73
2022/01/08 10:44:32;;;;;;;7.17;2.20;;;5.70;99.90;;;;;;5055425;28;20208;-73
2022/01/08 10:47:13;;;;;;;4.50;2.53;;;5.70;99.90;;;;;;5084689;28;20281;-72
2022/01/08 10:50:00;;;;;;;4.77;2.47;;;5.70;99.90;;;;;;5057929;28;20197;-72
2022/01/08 10:52:26;;;;;;;4.67;2.10;;;5.70;99.90;;;;;;5045137;28;20184;-68
2022/01/08 10:55:00;;;;;;;4.47;2.60;;;5.70;99.90;;;;;;5058845;28;20188;-72
2022/01/08 10:57:37;;;;;;;4.13;2.40;;;5.80;99.90;;;;;;5057316;28;20275;-73
2022/01/08 11:00:09;;;;;;;4.40;2.43;;;5.90;99.90;;;;;;5064171;28;20184;-71
2022/01/08 11:02:38;;;;;;;6.43;2.60;;;5.90;99.90;;;;;;5059076;28;20204;-74
2022/01/08 11:05:10;;;;;;;3.97;2.80;;;5.90;99.90;;;;;;5071690;28;20192;-74
2022/01/08 11:07:37;;;;;;;4.23;2.90;;;6.00;99.90;;;;;;5054776;28;20184;-68
2022/01/08 11:10:11;;;;;;;3.77;2.43;;;6.00;99.90;;;;;;5055354;28;20209;-74
2022/01/08 11:12:41;;;;;;;4.23;2.60;;;6.00;99.90;;;;;;5057248;28;20184;-70
2022/01/08 11:17:48;;;;;;;5.23;2.50;;;6.10;99.90;;;;;;5073001;28;20200;-72
2022/01/08 11:20:28;;;;;;;4.77;2.73;;;6.10;99.90;;;;;;5059981;28;20180;-76
2022/01/08 11:22:59;;;;;;;2.80;2.10;;;6.10;99.90;;;;;;5052146;28;20200;-75
2022/01/08 11:25:33;;;;;;;3.67;2.30;;;6.20;99.90;;;;;;5058254;28;20535;-74
2022/01/08 11:28:00;;;;;;;3.90;2.50;;;6.20;99.90;;;;;;5052013;28;20188;-71
2022/01/08 11:30:31;;;;;;;3.60;2.53;;;6.20;99.90;;;;;;5055048;28;20191;-67
2022/01/08 11:33:03;;;;;;;3.10;2.33;;;6.20;99.90;;;;;;5053042;28;20196;-75
2022/01/08 11:35:31;;;;;;;3.70;2.17;;;6.20;99.90;;;;;;5055153;28;20184;-76
2022/01/08 11:38:04;;;;;;;3.23;2.40;;;6.30;99.90;;;;;;5056667;28;20208;-75
2022/01/08 11:40:30;;;;;;;5.37;2.50;;;6.30;99.90;;;;;;5059951;28;20164;-73
2022/01/08 11:43:02;;;;;;;5.23;2.40;;;6.30;99.90;;;;;;5048560;28;20181;-76
2022/01/08 11:45:33;;;;;;;4.73;2.50;;;6.40;99.90;;;;;;5053983;28;20188;-73
2022/01/08 11:48:01;;;;;;;3.10;1.90;;;6.40;99.90;;;;;;5059300;28;20207;-71
2022/01/08 11:50:29;;;;;;;3.37;1.80;;;6.40;99.90;;;;;;5054457;28;20181;-72
2022/01/08 11:53:13;;;;;;;5.27;1.90;;;6.40;99.90;;;;;;5054876;28;20204;-75
2022/01/08 11:55:39;;;;;;;2.60;1.60;;;6.40;99.90;;;;;;5071366;28;20232;-71
2022/01/08 11:58:23;;;;;;;3.13;1.67;;;6.40;99.90;;;;;;5056743;28;20489;-74
2022/01/08 12:01:05;;;;;;;3.80;1.87;;;6.40;99.90;;;;;;5061594;28;20254;-74
2022/01/08 12:03:40;;;;;;;4.20;2.10;;;6.40;99.90;;;;;;5047905;28;20181;-76
2022/01/08 12:06:26;;;;;;;3.57;2.03;;;6.40;99.90;;;;;;5055145;28;20175;-73
2022/01/08 12:09:08;;;;;;;2.90;1.90;;;6.30;99.90;;;;;;5050654;28;20216;-72
2022/01/08 12:12:02;;;;;;;2.90;1.40;;;6.30;99.90;;;;;;5056939;28;20177;-73
2022/01/08 12:14:36;;;;;;;3.83;1.90;;;6.20;99.90;;;;;;5058791;28;20207;-76
2022/01/08 12:17:18;;;;;;;4.53;1.80;;;6.20;99.90;;;;;;5066687;28;20235;-74
2022/01/08 12:19:55;;;;;;;2.87;1.80;;;6.20;99.90;;;;;;5061257;28;20183;-72
2022/01/08 12:22:21;;;;;;;5.30;2.03;;;6.20;99.90;;;;;;5059617;28;20211;-76
2022/01/08 12:24:51;;;;;;;4.90;2.00;;;6.20;99.90;;;;;;5077111;28;20204;-73
2022/01/08 12:27:33;;;;;;;2.50;1.70;;;6.20;99.90;;;;;;5092053;28;20172;-74
2022/01/08 12:30:01;;;;;;;2.50;1.63;;;6.20;99.90;;;;;;5056771;28;20279;-75
2022/01/08 12:32:35;;;;;;;3.73;2.07;;;6.20;99.90;;;;;;5058451;28;20184;-75
2022/01/08 12:35:18;;;;;;;3.17;2.13;;;6.30;99.90;;;;;;5058210;28;20200;-75
2022/01/08 12:38:01;;;;;;;3.93;2.20;;;6.30;99.90;;;;;;5048079;28;20199;-69
2022/01/08 12:40:36;;;;;;;4.50;2.40;;;6.40;99.90;;;;;;5053912;28;20222;-76
2022/01/08 12:43:38;;;;;;;5.70;2.43;;;6.40;99.90;;;;;;5076514;28;20180;-72
2022/01/08 12:46:26;;;;;;;5.10;2.83;;;6.40;99.90;;;;;;5057536;28;20197;-74
2022/01/08 12:49:10;;;;;;;4.37;2.07;;;6.40;99.90;;;;;;5053869;28;20181;-74
2022/01/08 12:51:48;;;;;;;4.03;2.17;;;6.40;99.90;;;;;;5088060;28;20310;-74
2022/01/08 12:54:16;;;;;;;4.03;2.20;;;6.40;99.90;;;;;;5090897;28;20204;-74
2022/01/08 12:56:52;;;;;;;3.80;2.33;;;6.40;99.90;;;;;;5057569;28;20204;-73
2022/01/08 12:59:19;;;;;;;5.33;2.70;;;6.30;99.90;;;;;;5054793;28;20299;-74
2022/01/08 13:01:54;;;;;;;3.37;2.20;;;6.30;99.90;;;;;;5058183;28;20444;-71
2022/01/08 13:04:22;;;;;;;2.70;2.00;;;6.30;99.90;;;;;;5058100;28;20176;-74
2022/01/08 13:06:52;;;;;;;2.70;2.20;;;6.30;99.90;;;;;;5061866;28;20192;-73
2022/01/08 13:09:18;;;;;;;4.53;2.27;;;6.20;99.90;;;;;;5062361;28;20184;-73
2022/01/08 13:11:45;;;;;;;3.13;1.97;;;6.20;99.90;;;;;;5064003;28;20226;-73
2022/01/08 13:14:11;;;;;;;2.97;1.90;;;6.20;99.90;;;;;;5056916;28;20333;-73
2022/01/08 13:16:42;;;;;;;3.43;1.83;;;6.20;99.90;;;;;;5051745;28;20181;-73
2022/01/08 13:19:07;;;;;;;3.23;2.10;;;6.20;99.90;;;;;;5053806;28;20185;-72
2022/01/08 13:21:42;;;;;;;2.57;1.70;;;6.10;99.90;;;;;;5048692;28;20179;-67
2022/01/08 13:24:13;;;;;;;3.07;1.87;;;6.10;99.90;;;;;;5059817;28;20195;-74
2022/01/08 13:26:45;;;;;;;3.30;1.70;;;6.10;99.90;;;;;;5058955;28;20179;-75
2022/01/08 13:29:29;;;;;;;2.73;1.90;;;6.10;99.90;;;;;;5057257;28;20333;-74